Time;durP1;ratioP1;P1;durP2;ratioP2;P2;SDS_P1;SDS_P2;PMS_P1;PMS_P2;Temp;Humidity;BMP_temperature;BMP_pressure;BME280_temperature;BME280_humidity;BME280_pressure;Samples;Min_cycle;Max_cycle;Signal;HPM_P1;HPM_P2
2023/11/06 00:01:44;;;;;;;6.63;1.93;;;7.80;1.00;;;;;;5097991;28;20466;-43
2023/11/06 00:04:10;;;;;;;3.93;1.43;;;7.90;1.00;;;;;;5099213;28;20188;-40
2023/11/06 00:06:35;;;;;;;5.17;1.60;;;7.90;1.00;;;;;;5099210;28;20735;-41
2023/11/06 00:09:03;;;;;;;3.20;1.20;;;7.90;1.00;;;;;;5099749;28;20430;-39
2023/11/06 00:11:29;;;;;;;3.10;1.47;;;8.00;1.00;;;;;;5098534;28;20172;-41
2023/11/06 00:13:55;;;;;;;3.23;1.70;;;8.00;1.00;;;;;;5098191;28;20463;-39
2023/11/06 00:16:21;;;;;;;3.63;1.57;;;7.90;1.00;;;;;;5097931;28;20204;-43
2023/11/06 00:18:47;;;;;;;4.87;2.20;;;8.00;1.00;;;;;;5095435;28;20212;-39
2023/11/06 00:21:13;;;;;;;2.53;1.30;;;8.00;1.00;;;;;;5097332;28;20454;-39
2023/11/06 00:23:39;;;;;;;4.37;1.27;;;8.00;1.00;;;;;;5098528;28;20422;-39
2023/11/06 00:26:06;;;;;;;3.50;1.43;;;8.00;1.00;;;;;;5097651;28;20793;-39
2023/11/06 00:28:35;;;;;;;7.93;1.50;;;8.00;1.00;;;;;;5098826;28;20203;-40
2023/11/06 00:31:00;;;;;;;2.40;1.60;;;8.00;1.00;;;;;;5099143;28;20455;-39
2023/11/06 00:33:26;;;;;;;2.90;1.23;;;8.00;1.00;;;;;;5098587;28;20489;-38
2023/11/06 00:35:52;;;;;;;2.80;1.30;;;8.00;1.00;;;;;;5097838;28;20738;-39
2023/11/06 00:38:21;;;;;;;2.83;1.70;;;8.10;1.00;;;;;;5099550;28;20211;-39
2023/11/06 00:40:46;;;;;;;2.03;1.27;;;8.00;1.00;;;;;;5077882;28;20342;-38
2023/11/06 00:43:12;;;;;;;4.63;1.33;;;8.00;1.00;;;;;;5070967;28;20802;-39
2023/11/06 00:45:38;;;;;;;3.63;1.67;;;8.10;1.00;;;;;;5078715;28;20208;-39
2023/11/06 00:48:04;;;;;;;3.20;1.10;;;8.10;1.00;;;;;;5078195;28;20483;-39
2023/11/06 00:50:30;;;;;;;3.73;1.40;;;8.10;1.00;;;;;;5075785;28;20173;-40
2023/11/06 00:52:58;;;;;;;6.70;1.53;;;8.10;1.00;;;;;;5077277;28;20700;-38
2023/11/06 00:55:25;;;;;;;2.83;1.60;;;8.20;1.00;;;;;;5078620;28;20584;-38
2023/11/06 00:57:52;;;;;;;4.57;1.53;;;8.30;1.00;;;;;;5077859;28;20459;-39
2023/11/06 01:00:21;;;;;;;5.20;1.20;;;8.40;1.00;;;;;;5077369;28;20442;-39
2023/11/06 01:02:47;;;;;;;3.87;1.60;;;8.30;1.00;;;;;;5078025;28;20411;-37
2023/11/06 01:05:12;;;;;;;3.03;1.80;;;8.30;1.00;;;;;;5076674;28;20427;-40
2023/11/06 01:07:39;;;;;;;3.53;1.53;;;8.30;99.90;;;;;;5078616;28;20222;-37
2023/11/06 01:10:05;;;;;;;3.60;1.37;;;8.20;99.90;;;;;;5077240;28;20837;-39
2023/11/06 01:12:30;;;;;;;6.13;1.40;;;8.20;99.90;;;;;;5071836;28;20258;-41
2023/11/06 01:14:57;;;;;;;4.57;1.83;;;8.10;99.90;;;;;;5077826;28;21549;-40
2023/11/06 01:17:25;;;;;;;2.70;1.30;;;8.10;99.90;;;;;;5078399;28;20208;-41
2023/11/06 01:19:51;;;;;;;5.40;1.30;;;8.10;99.90;;;;;;5077318;28;20432;-37
2023/11/06 01:22:17;;;;;;;2.37;1.23;;;8.10;99.90;;;;;;5076715;28;20435;-39
2023/11/06 01:24:43;;;;;;;3.17;1.10;;;8.10;99.90;;;;;;5072241;28;20867;-40
2023/11/06 01:27:09;;;;;;;1.63;0.80;;;8.20;99.90;;;;;;5074083;28;20189;-39
2023/11/06 01:29:35;;;;;;;4.87;1.40;;;8.20;99.90;;;;;;5076055;28;20443;-41
2023/11/06 01:32:03;;;;;;;4.50;1.30;;;8.20;99.90;;;;;;5075048;28;20685;-41
2023/11/06 01:34:29;;;;;;;4.50;1.60;;;8.20;99.90;;;;;;5075142;28;20433;-37
2023/11/06 01:36:55;;;;;;;3.57;1.20;;;8.20;99.90;;;;;;5075736;28;20423;-38
2023/11/06 01:39:22;;;;;;;2.70;1.33;;;8.10;99.90;;;;;;5082122;28;20576;-38
2023/11/06 01:41:48;;;;;;;2.60;1.20;;;8.20;99.90;;;;;;5096747;28;20564;-37
2023/11/06 01:44:14;;;;;;;3.00;1.20;;;8.20;99.90;;;;;;5075384;28;20636;-42
2023/11/06 01:46:40;;;;;;;3.03;0.90;;;8.30;1.00;;;;;;5093569;28;20181;-41
2023/11/06 01:49:06;;;;;;;2.23;1.10;;;8.50;1.00;;;;;;5096703;28;20818;-38
2023/11/06 01:51:32;;;;;;;5.57;1.20;;;8.50;99.90;;;;;;5075842;28;20501;-38
2023/11/06 01:53:58;;;;;;;1.80;0.83;;;8.40;99.90;;;;;;5078352;28;20461;-39
2023/11/06 01:56:24;;;;;;;4.60;0.80;;;8.30;99.90;;;;;;5095570;28;20708;-39
2023/11/06 01:58:49;;;;;;;3.30;1.40;;;8.30;99.90;;;;;;5060712;28;20231;-40
2023/11/06 02:01:16;;;;;;;1.53;1.10;;;8.30;99.90;;;;;;5075808;28;20189;-41
2023/11/06 02:03:41;;;;;;;3.70;1.03;;;8.20;99.90;;;;;;5094685;28;20185;-41
2023/11/06 02:06:08;;;;;;;5.33;1.20;;;8.20;99.90;;;;;;5074460;28;21018;-37
2023/11/06 02:08:34;;;;;;;2.43;1.00;;;8.20;99.90;;;;;;5074852;28;20423;-42
2023/11/06 02:11:03;;;;;;;4.00;1.20;;;8.20;99.90;;;;;;5096194;28;20418;-38
2023/11/06 02:13:30;;;;;;;6.00;1.33;;;8.20;99.90;;;;;;5076132;28;20479;-38
2023/11/06 02:15:55;;;;;;;2.50;1.13;;;8.10;99.90;;;;;;5060648;28;21146;-41
2023/11/06 02:18:24;;;;;;;4.10;1.00;;;8.10;99.90;;;;;;5096755;28;20903;-45
2023/11/06 02:20:54;;;;;;;4.80;1.27;;;8.10;99.90;;;;;;5076942;28;20177;-39
2023/11/06 02:23:27;;;;;;;2.63;1.00;;;8.10;99.90;;;;;;5075091;28;20507;-41
2023/11/06 02:25:56;;;;;;;2.80;1.00;;;8.10;99.90;;;;;;5094937;28;20433;-40
2023/11/06 02:28:21;;;;;;;3.20;1.03;;;8.10;99.90;;;;;;5096030;28;20536;-42
2023/11/06 02:30:52;;;;;;;4.20;1.10;;;8.10;99.90;;;;;;5094668;28;20564;-42
2023/11/06 02:33:21;;;;;;;2.67;0.80;;;8.10;99.90;;;;;;5077652;28;20395;-40
2023/11/06 02:35:47;;;;;;;3.30;0.80;;;8.10;99.90;;;;;;5075648;28;20415;-39
2023/11/06 02:38:13;;;;;;;2.50;1.23;;;8.10;99.90;;;;;;5095206;28;20488;-41
2023/11/06 02:40:39;;;;;;;2.03;0.70;;;8.00;99.90;;;;;;5096149;28;20549;-39
2023/11/06 02:43:05;;;;;;;2.13;1.40;;;7.90;99.90;;;;;;5095864;28;20522;-40
2023/11/06 02:45:30;;;;;;;2.63;1.03;;;7.80;99.90;;;;;;5095415;28;20427;-40
2023/11/06 02:47:56;;;;;;;3.53;0.93;;;7.80;99.90;;;;;;5096064;28;20569;-40
2023/11/06 02:50:22;;;;;;;4.23;1.40;;;7.80;1.00;;;;;;5096286;28;20219;-40
2023/11/06 02:52:48;;;;;;;2.40;1.00;;;7.80;99.90;;;;;;5096148;28;20180;-41
2023/11/06 02:55:14;;;;;;;3.03;0.90;;;7.80;99.90;;;;;;5095880;28;20645;-39
2023/11/06 02:57:40;;;;;;;2.83;1.40;;;7.80;99.90;;;;;;5095704;28;20468;-42
2023/11/06 03:00:06;;;;;;;3.23;0.93;;;7.80;99.90;;;;;;5095306;28;20188;-39
2023/11/06 03:02:36;;;;;;;3.70;1.40;;;7.70;1.00;;;;;;5095074;28;20580;-39
2023/11/06 03:05:03;;;;;;;2.90;0.87;;;7.80;1.00;;;;;;5095723;28;20440;-39
2023/11/06 03:07:30;;;;;;;2.50;1.17;;;7.70;1.00;;;;;;5096322;28;20438;-39
2023/11/06 03:09:55;;;;;;;2.30;0.97;;;7.70;1.00;;;;;;5096227;28;20429;-38
2023/11/06 03:12:21;;;;;;;5.30;1.30;;;7.70;1.00;;;;;;5095624;28;20446;-38
2023/11/06 03:14:47;;;;;;;2.80;1.03;;;7.70;1.00;;;;;;5093392;28;20172;-37
2023/11/06 03:17:13;;;;;;;2.77;1.37;;;7.70;1.00;;;;;;5094479;28;20267;-39
2023/11/06 03:19:38;;;;;;;4.60;1.30;;;7.70;1.00;;;;;;5096461;28;20180;-41
2023/11/06 03:22:04;;;;;;;2.10;0.90;;;7.70;1.00;;;;;;5095008;28;20438;-38
2023/11/06 03:24:30;;;;;;;4.50;1.67;;;7.60;1.00;;;;;;5095202;28;20200;-38
2023/11/06 03:26:56;;;;;;;4.23;1.03;;;7.70;1.00;;;;;;5095587;28;20207;-38
2023/11/06 03:29:21;;;;;;;5.23;0.97;;;7.60;1.00;;;;;;5094147;28;20180;-38
2023/11/06 03:31:47;;;;;;;6.03;1.33;;;7.60;1.00;;;;;;5094039;28;20426;-38
2023/11/06 03:34:13;;;;;;;3.40;2.00;;;7.60;1.00;;;;;;5094735;28;20216;-40
2023/11/06 03:36:42;;;;;;;4.77;1.30;;;7.60;1.00;;;;;;5073060;28;20372;-40
2023/11/06 03:39:08;;;;;;;4.87;1.17;;;7.60;1.00;;;;;;5093076;28;20232;-37
2023/11/06 03:41:34;;;;;;;2.80;1.23;;;7.70;1.00;;;;;;5093713;28;20681;-37
2023/11/06 03:43:59;;;;;;;3.63;1.00;;;7.70;1.00;;;;;;5094723;28;20430;-38
2023/11/06 03:46:25;;;;;;;4.50;1.37;;;7.70;1.00;;;;;;5095019;28;20512;-38
2023/11/06 03:48:51;;;;;;;4.20;1.30;;;7.70;1.00;;;;;;5093998;28;20177;-41
2023/11/06 03:51:17;;;;;;;3.90;1.40;;;7.80;1.00;;;;;;5095101;28;20514;-40
2023/11/06 03:53:42;;;;;;;3.80;1.10;;;7.80;1.00;;;;;;5095210;28;20399;-39
2023/11/06 03:56:09;;;;;;;5.10;1.37;;;7.80;1.00;;;;;;5095234;28;20184;-39
2023/11/06 03:58:35;;;;;;;4.53;1.97;;;7.80;1.00;;;;;;5094548;28;20208;-38
2023/11/06 04:01:02;;;;;;;2.13;0.80;;;7.90;1.00;;;;;;5093229;28;20541;-40
2023/11/06 04:03:28;;;;;;;2.03;0.87;;;7.90;1.00;;;;;;5071582;28;20187;-40
2023/11/06 04:05:54;;;;;;;2.10;1.00;;;7.90;1.00;;;;;;5091597;28;20698;-38
2023/11/06 04:08:21;;;;;;;5.57;1.23;;;7.90;1.00;;;;;;5093296;28;20417;-40
2023/11/06 04:10:48;;;;;;;3.97;1.10;;;7.90;1.00;;;;;;5093530;28;20574;-38
2023/11/06 04:13:13;;;;;;;3.57;1.20;;;7.90;1.00;;;;;;5092760;28;20423;-37
2023/11/06 04:15:39;;;;;;;3.90;0.97;;;7.90;1.00;;;;;;5072742;28;20523;-38
2023/11/06 04:18:05;;;;;;;3.63;1.23;;;7.90;99.90;;;;;;5077020;28;20879;-39
2023/11/06 04:20:31;;;;;;;3.10;1.27;;;7.90;1.00;;;;;;5094713;28;20181;-40
2023/11/06 04:22:56;;;;;;;2.93;1.20;;;7.90;1.00;;;;;;5094896;28;20172;-40
2023/11/06 04:25:22;;;;;;;3.23;1.33;;;7.80;1.00;;;;;;5096573;28;20439;-41
2023/11/06 04:27:48;;;;;;;6.30;1.20;;;7.80;1.00;;;;;;5098304;28;20562;-38
2023/11/06 04:30:14;;;;;;;5.63;1.17;;;7.80;1.00;;;;;;5098408;28;20181;-38
2023/11/06 04:32:39;;;;;;;2.90;1.50;;;7.80;1.00;;;;;;5098160;28;20550;-38
2023/11/06 04:35:08;;;;;;;2.70;1.10;;;7.80;1.00;;;;;;5098169;28;20475;-40
2023/11/06 04:37:36;;;;;;;3.07;1.20;;;7.80;1.00;;;;;;5098232;28;20624;-38
2023/11/06 04:40:05;;;;;;;4.90;1.37;;;7.70;1.00;;;;;;5088246;28;20532;-38
2023/11/06 04:42:33;;;;;;;4.20;1.13;;;7.70;1.00;;;;;;5095941;28;20743;-40
2023/11/06 04:44:58;;;;;;;3.63;1.20;;;7.70;1.00;;;;;;5097016;28;20426;-38
2023/11/06 04:47:24;;;;;;;2.80;1.30;;;7.60;1.00;;;;;;5094659;28;20429;-40
2023/11/06 04:49:50;;;;;;;5.60;1.00;;;7.60;99.90;;;;;;5094980;28;20532;-38
2023/11/06 04:52:15;;;;;;;2.63;1.00;;;7.60;1.00;;;;;;5096011;28;20184;-38
2023/11/06 04:54:41;;;;;;;2.70;1.30;;;7.50;1.00;;;;;;5096728;28;20188;-38
2023/11/06 04:57:07;;;;;;;5.57;1.30;;;7.40;1.00;;;;;;5074703;28;20617;-38
2023/11/06 04:59:33;;;;;;;5.57;1.20;;;7.40;1.00;;;;;;5092282;28;20261;-38
2023/11/06 05:01:58;;;;;;;6.47;1.40;;;7.40;1.00;;;;;;5096615;28;20538;-37
2023/11/06 05:04:25;;;;;;;5.23;1.17;;;7.50;1.00;;;;;;5097272;28;20422;-39
2023/11/06 05:06:51;;;;;;;2.80;1.10;;;7.40;1.00;;;;;;5096424;28;20222;-39
2023/11/06 05:09:17;;;;;;;3.13;1.03;;;7.40;1.00;;;;;;5095649;28;20853;-39
2023/11/06 05:11:42;;;;;;;3.30;0.97;;;7.40;1.00;;;;;;5075224;28;20411;-39
2023/11/06 05:14:08;;;;;;;3.00;1.67;;;7.50;1.00;;;;;;5094457;28;20252;-38
2023/11/06 05:16:34;;;;;;;2.87;0.90;;;7.50;1.00;;;;;;5096218;28;20219;-39
2023/11/06 05:18:59;;;;;;;2.03;1.10;;;7.60;1.00;;;;;;5097166;28;20223;-40
2023/11/06 05:21:26;;;;;;;2.37;1.10;;;7.60;1.00;;;;;;5074734;28;20193;-41
2023/11/06 05:23:53;;;;;;;3.10;1.43;;;7.70;1.00;;;;;;5094882;28;20565;-37
2023/11/06 05:26:18;;;;;;;5.43;0.97;;;7.70;1.00;;;;;;5096524;28;20407;-41
2023/11/06 05:28:44;;;;;;;4.50;0.80;;;7.80;1.00;;;;;;5097249;28;20482;-41
2023/11/06 05:31:10;;;;;;;1.10;0.60;;;7.80;1.00;;;;;;5097192;28;20593;-38
2023/11/06 05:33:39;;;;;;;2.13;0.70;;;7.90;1.00;;;;;;5096154;28;20180;-40
2023/11/06 05:36:06;;;;;;;2.13;0.70;;;8.00;99.90;;;;;;5092610;28;20430;-38
2023/11/06 05:38:32;;;;;;;2.20;1.10;;;8.00;99.90;;;;;;5091711;28;20454;-38
2023/11/06 05:40:58;;;;;;;3.33;1.13;;;8.00;99.90;;;;;;5092577;28;20477;-38
2023/11/06 05:43:23;;;;;;;3.93;1.57;;;7.90;99.90;;;;;;5091253;28;20435;-38
2023/11/06 05:45:49;;;;;;;1.90;0.97;;;7.90;99.90;;;;;;5091787;28;20238;-38
2023/11/06 05:48:15;;;;;;;1.90;0.63;;;7.90;99.90;;;;;;5094604;28;20192;-41
2023/11/06 05:50:40;;;;;;;2.33;0.90;;;7.80;99.90;;;;;;5094556;28;20188;-38
2023/11/06 05:53:06;;;;;;;3.67;1.20;;;7.80;99.90;;;;;;5095356;28;20253;-39
2023/11/06 05:55:32;;;;;;;2.33;0.90;;;7.80;99.90;;;;;;5074051;28;20200;-38
2023/11/06 05:57:57;;;;;;;4.30;1.00;;;7.70;99.90;;;;;;5091754;28;20311;-38
2023/11/06 06:00:23;;;;;;;1.43;0.57;;;7.80;99.90;;;;;;5095431;28;20260;-38
2023/11/06 06:02:50;;;;;;;1.33;0.70;;;7.80;99.90;;;;;;5075135;28;20223;-37
2023/11/06 06:05:16;;;;;;;2.13;0.87;;;7.70;99.90;;;;;;5093247;28;20184;-39
2023/11/06 06:07:43;;;;;;;2.67;0.87;;;7.70;99.90;;;;;;5094778;28;20434;-37
2023/11/06 06:10:11;;;;;;;2.87;1.20;;;7.80;99.90;;;;;;5094030;28;20826;-39
2023/11/06 06:12:37;;;;;;;4.27;1.20;;;7.80;99.90;;;;;;5090368;28;20836;-40
2023/11/06 06:15:06;;;;;;;2.20;0.80;;;7.80;99.90;;;;;;5090648;28;20441;-38
2023/11/06 06:17:37;;;;;;;2.80;0.90;;;7.80;99.90;;;;;;5067398;28;20509;-40
2023/11/06 06:20:05;;;;;;;2.70;1.00;;;7.70;99.90;;;;;;5080794;28;20505;-39
2023/11/06 06:22:31;;;;;;;3.40;2.17;;;7.70;99.90;;;;;;5050380;28;20769;-38
2023/11/06 06:24:57;;;;;;;1.20;0.60;;;7.70;99.90;;;;;;5086629;28;20452;-41
2023/11/06 06:27:23;;;;;;;1.80;0.80;;;7.80;99.90;;;;;;5091177;28;20422;-38
2023/11/06 06:29:48;;;;;;;0.97;0.53;;;7.70;99.90;;;;;;5089063;28;20361;-39
2023/11/06 06:32:14;;;;;;;3.90;0.87;;;7.70;99.90;;;;;;5089460;28;20181;-39
2023/11/06 06:34:40;;;;;;;1.97;0.90;;;7.70;99.90;;;;;;5090734;28;20176;-40
2023/11/06 06:37:06;;;;;;;1.10;0.67;;;7.80;99.90;;;;;;5069399;28;20931;-42
2023/11/06 06:39:31;;;;;;;1.70;0.80;;;7.80;99.90;;;;;;5085203;28;20212;-39
2023/11/06 06:41:57;;;;;;;1.40;0.93;;;7.70;99.90;;;;;;5089091;28;20497;-39
2023/11/06 06:44:24;;;;;;;3.87;0.80;;;7.70;99.90;;;;;;5090727;28;20242;-39
2023/11/06 06:46:49;;;;;;;1.80;0.90;;;7.80;99.90;;;;;;5069158;28;20181;-38
2023/11/06 06:49:15;;;;;;;1.70;1.00;;;7.70;99.90;;;;;;5088238;28;20499;-40
2023/11/06 06:51:41;;;;;;;3.23;1.23;;;7.80;99.90;;;;;;5089292;28;20188;-39
2023/11/06 06:54:07;;;;;;;2.70;1.27;;;8.00;99.90;;;;;;5090984;28;20430;-39
2023/11/06 06:56:32;;;;;;;3.17;1.00;;;8.10;99.90;;;;;;5093450;28;20184;-38
2023/11/06 06:58:58;;;;;;;3.77;1.20;;;8.10;99.90;;;;;;5092223;28;20234;-39
2023/11/06 07:01:24;;;;;;;1.60;0.87;;;8.20;99.90;;;;;;5089129;28;20495;-38
2023/11/06 07:03:49;;;;;;;1.90;0.80;;;8.40;99.90;;;;;;5091970;28;20192;-40
2023/11/06 07:06:15;;;;;;;2.97;1.10;;;8.50;38.90;;;;;;5094156;28;20372;-40
2023/11/06 07:08:41;;;;;;;3.80;1.23;;;8.60;4.60;;;;;;5093506;28;20563;-39
2023/11/06 07:11:07;;;;;;;3.03;1.37;;;8.70;1.00;;;;;;5094375;28;20184;-40
2023/11/06 07:13:33;;;;;;;2.03;1.10;;;8.80;1.00;;;;;;5095105;28;20657;-38
2023/11/06 07:15:58;;;;;;;2.37;0.90;;;9.00;1.00;;;;;;5093966;28;20260;-40
2023/11/06 07:18:24;;;;;;;3.13;1.50;;;9.10;1.00;;;;;;5092716;28;20222;-41
2023/11/06 07:20:49;;;;;;;3.40;1.43;;;9.30;1.00;;;;;;5095073;28;20177;-40
2023/11/06 07:23:15;;;;;;;2.43;1.30;;;9.50;99.90;;;;;;5094599;28;20569;-39
2023/11/06 07:25:41;;;;;;;2.10;1.00;;;9.70;99.90;;;;;;5092751;28;20475;-39
2023/11/06 07:28:06;;;;;;;8.20;1.40;;;9.50;99.90;;;;;;5091191;28;20585;-38
2023/11/06 07:30:32;;;;;;;1.43;0.90;;;9.60;99.90;;;;;;5093471;28;20195;-39
2023/11/06 07:32:58;;;;;;;2.50;1.03;;;9.70;99.90;;;;;;5094458;28;20463;-40
2023/11/06 07:35:23;;;;;;;2.30;1.03;;;9.90;99.90;;;;;;5075841;28;20468;-41
2023/11/06 07:37:49;;;;;;;5.73;1.10;;;10.20;99.90;;;;;;5092372;28;20269;-41
2023/11/06 07:40:15;;;;;;;4.10;1.27;;;10.30;99.90;;;;;;5063255;28;20228;-38
2023/11/06 07:42:41;;;;;;;4.43;1.20;;;10.40;1.00;;;;;;5070560;28;20328;-41
2023/11/06 07:45:07;;;;;;;2.33;0.87;;;10.40;99.90;;;;;;5069108;28;20455;-39
2023/11/06 07:47:37;;;;;;;5.00;1.40;;;10.50;99.90;;;;;;5073506;28;20503;-42
2023/11/06 07:50:04;;;;;;;2.77;1.20;;;10.60;99.90;;;;;;5071659;28;20424;-40
2023/11/06 07:52:30;;;;;;;2.53;1.10;;;10.90;99.90;;;;;;5073055;28;20435;-41
2023/11/06 07:54:56;;;;;;;2.40;1.40;;;11.40;99.90;;;;;;5072133;28;20431;-39
2023/11/06 07:57:22;;;;;;;1.63;1.00;;;12.10;99.90;;;;;;5072941;28;20422;-42
2023/11/06 07:59:48;;;;;;;3.60;1.13;;;12.50;1.00;;;;;;5074072;28;20851;-41
2023/11/06 08:02:14;;;;;;;2.60;0.90;;;12.80;1.00;;;;;;5074133;28;20185;-40
2023/11/06 08:04:40;;;;;;;3.40;1.20;;;13.20;56.20;;;;;;5074728;28;20418;-39
2023/11/06 08:07:06;;;;;;;2.80;1.00;;;13.20;1.00;;;;;;5077906;28;20423;-41
2023/11/06 08:09:33;;;;;;;3.43;1.00;;;13.90;99.90;;;;;;5059505;28;20531;-40
2023/11/06 08:12:03;;;;;;;2.87;1.10;;;14.20;1.00;;;;;;5078297;28;20446;-44
2023/11/06 08:14:32;;;;;;;2.57;1.03;;;14.50;1.00;;;;;;5078344;28;20751;-41
2023/11/06 08:16:57;;;;;;;1.60;0.80;;;14.80;99.90;;;;;;5077729;28;20427;-41
2023/11/06 08:19:23;;;;;;;4.87;1.23;;;15.00;99.90;;;;;;5077133;28;20481;-42
2023/11/06 08:21:49;;;;;;;2.23;0.97;;;15.20;99.90;;;;;;5060318;28;20276;-40
2023/11/06 08:24:14;;;;;;;1.57;0.90;;;15.60;99.90;;;;;;5077343;28;20193;-40
2023/11/06 08:26:40;;;;;;;3.30;0.80;;;16.00;99.90;;;;;;5078627;28;20180;-40
2023/11/06 08:29:09;;;;;;;5.93;1.93;;;16.20;99.90;;;;;;5059652;28;20201;-40
2023/11/06 08:31:35;;;;;;;1.43;0.90;;;16.20;93.80;;;;;;5059908;28;20177;-41
2023/11/06 08:34:01;;;;;;;2.73;1.10;;;16.80;67.00;;;;;;5059808;28;20818;-41
2023/11/06 08:36:27;;;;;;;1.77;0.80;;;17.10;27.40;;;;;;5076461;28;20181;-37
2023/11/06 08:38:52;;;;;;;3.27;0.90;;;17.10;1.00;;;;;;5059686;28;20469;-38
2023/11/06 08:41:18;;;;;;;4.73;1.10;;;15.90;14.40;;;;;;5098545;28;20207;-39
2023/11/06 08:43:44;;;;;;;4.50;1.40;;;15.10;54.40;;;;;;5095242;28;20620;-40
2023/11/06 08:46:09;;;;;;;2.33;1.10;;;14.30;99.90;;;;;;5096140;28;20523;-39
2023/11/06 08:48:35;;;;;;;1.83;0.77;;;13.80;99.90;;;;;;5093834;28;20216;-41
2023/11/06 08:51:01;;;;;;;2.50;0.90;;;12.90;1.00;;;;;;5095071;28;20191;-40
2023/11/06 08:53:27;;;;;;;2.80;1.37;;;12.50;1.00;;;;;;5093446;28;20181;-40
2023/11/06 08:55:52;;;;;;;2.80;0.90;;;12.40;99.90;;;;;;5094841;28;20203;-42
2023/11/06 08:58:19;;;;;;;2.33;0.87;;;12.20;1.00;;;;;;5095401;28;20470;-40
2023/11/06 09:00:45;;;;;;;2.60;1.13;;;12.10;99.90;;;;;;5095811;28;20593;-41
2023/11/06 09:03:14;;;;;;;2.80;1.17;;;12.20;99.90;;;;;;5087426;28;20430;-42
2023/11/06 09:05:43;;;;;;;2.20;0.90;;;12.00;99.90;;;;;;5094888;28;20869;-40
2023/11/06 09:08:09;;;;;;;2.57;1.10;;;12.10;1.00;;;;;;5095631;28;20746;-40
2023/11/06 09:10:35;;;;;;;3.77;1.33;;;12.60;1.00;;;;;;5091455;28;20549;-41
2023/11/06 09:13:01;;;;;;;3.27;0.90;;;13.00;99.90;;;;;;5094909;28;20485;-40
2023/11/06 09:15:26;;;;;;;1.73;0.87;;;13.10;1.00;;;;;;5097454;28;20279;-41
2023/11/06 09:17:53;;;;;;;1.50;0.80;;;13.20;1.00;;;;;;5077815;28;20552;-39
2023/11/06 09:20:19;;;;;;;2.43;1.00;;;13.00;1.00;;;;;;5095578;28;20185;-39
2023/11/06 09:22:46;;;;;;;1.47;0.90;;;12.70;1.00;;;;;;5094512;28;20690;-40
2023/11/06 09:25:12;;;;;;;1.50;0.90;;;12.50;99.90;;;;;;5093672;28;20422;-39
2023/11/06 09:27:38;;;;;;;2.80;1.00;;;12.60;99.90;;;;;;5095752;28;20438;-39
2023/11/06 09:30:08;;;;;;;2.93;1.10;;;12.70;99.90;;;;;;5087417;28;20570;-44
2023/11/06 09:32:34;;;;;;;2.60;1.00;;;12.40;99.90;;;;;;5095177;28;20431;-41
2023/11/06 09:35:01;;;;;;;2.03;1.00;;;12.30;42.80;;;;;;5096086;28;20418;-39
2023/11/06 09:37:27;;;;;;;2.20;1.00;;;12.70;1.00;;;;;;5094530;28;20519;-39
2023/11/06 09:39:53;;;;;;;4.63;1.13;;;13.20;1.00;;;;;;5085824;28;20885;-39
2023/11/06 09:42:18;;;;;;;5.03;1.20;;;13.30;99.90;;;;;;5074179;28;20186;-41
2023/11/06 09:44:46;;;;;;;2.70;0.80;;;13.70;1.00;;;;;;5076486;28;20177;-37
2023/11/06 09:47:12;;;;;;;2.10;1.20;;;14.20;99.90;;;;;;5077604;28;20184;-38
2023/11/06 09:50:04;;;;;;;4.53;1.97;;;15.00;1.00;;;;;;5077740;28;20427;-43
2023/11/06 09:52:32;;;;;;;2.50;0.80;;;16.40;99.90;;;;;;5077112;28;20519;-41
2023/11/06 09:55:00;;;;;;;2.93;0.67;;;17.90;89.60;;;;;;5075920;28;20427;-40
2023/11/06 09:57:26;;;;;;;2.87;0.87;;;18.50;1.00;;;;;;5052868;28;20922;-40
2023/11/06 09:59:52;;;;;;;2.93;0.90;;;17.70;1.00;;;;;;5071902;28;20802;-42
2023/11/06 10:02:23;;;;;;;2.17;0.90;;;17.30;1.00;;;;;;5053006;28;20198;-39
2023/11/06 10:04:48;;;;;;;6.77;2.10;;;16.80;1.00;;;;;;5073681;28;20553;-38
2023/11/06 10:07:43;;;;;;;2.63;0.63;;;17.40;1.00;;;;;;5076167;28;20887;-42
2023/11/06 10:10:12;;;;;;;1.80;0.90;;;18.10;1.00;;;;;;5073597;28;20232;-39
2023/11/06 10:12:38;;;;;;;3.23;1.03;;;18.40;1.00;;;;;;5073778;28;20434;-42
2023/11/06 10:15:06;;;;;;;1.80;0.93;;;17.70;1.00;;;;;;5036925;28;20424;-40
2023/11/06 10:17:33;;;;;;;1.70;0.93;;;17.30;1.00;;;;;;5071120;28;20177;-41
2023/11/06 10:20:08;;;;;;;2.20;0.93;;;16.70;1.00;;;;;;5074188;28;20408;-42
2023/11/06 10:22:35;;;;;;;4.10;0.73;;;16.30;1.00;;;;;;5074904;28;20435;-38
2023/11/06 10:25:01;;;;;;;3.07;0.90;;;15.90;1.00;;;;;;5073871;28;20422;-41
2023/11/06 10:27:29;;;;;;;2.30;0.90;;;15.80;1.00;;;;;;5073280;28;20415;-39
2023/11/06 10:30:10;;;;;;;2.90;0.77;;;15.30;1.00;;;;;;5074906;28;20264;-38
2023/11/06 10:32:36;;;;;;;4.90;1.10;;;15.00;1.00;;;;;;5074034;28;20571;-39
2023/11/06 10:35:12;;;;;;;1.67;0.70;;;14.40;9.60;;;;;;5073176;28;20423;-41
2023/11/06 10:37:42;;;;;;;2.90;1.03;;;14.00;59.80;;;;;;5051655;28;20239;-40
2023/11/06 10:40:17;;;;;;;3.70;0.90;;;13.90;99.90;;;;;;5073403;28;20563;-38
2023/11/06 10:42:48;;;;;;;1.30;0.60;;;13.50;99.90;;;;;;5053901;28;20427;-41
2023/11/06 10:45:18;;;;;;;1.70;0.80;;;13.60;99.90;;;;;;5074196;28;20487;-40
2023/11/06 10:47:53;;;;;;;2.03;0.90;;;13.50;99.90;;;;;;5071944;28;20411;-38
2023/11/06 10:50:20;;;;;;;1.30;0.70;;;13.40;99.90;;;;;;5074989;28;20453;-39
2023/11/06 10:52:54;;;;;;;2.10;0.90;;;13.50;99.90;;;;;;5074944;28;20521;-39
2023/11/06 10:55:24;;;;;;;1.10;0.63;;;13.20;99.90;;;;;;5071417;28;20672;-39
2023/11/06 10:57:54;;;;;;;1.67;0.77;;;13.00;99.90;;;;;;5070503;28;20550;-39
2023/11/06 11:00:21;;;;;;;1.83;0.80;;;12.60;1.00;;;;;;5070700;28;20450;-43
2023/11/06 11:02:51;;;;;;;1.30;0.50;;;12.50;1.00;;;;;;5040696;28;20434;-40
2023/11/06 11:05:19;;;;;;;1.10;0.63;;;12.30;99.90;;;;;;5070288;28;20416;-40
2023/11/06 11:07:48;;;;;;;1.93;0.83;;;12.40;75.90;;;;;;5037770;28;20896;-39
2023/11/06 11:10:18;;;;;;;1.50;0.80;;;12.30;99.90;;;;;;5052136;28;20848;-39
2023/11/06 11:12:51;;;;;;;3.43;1.57;;;12.20;99.90;;;;;;5052701;28;20416;-39
2023/11/06 11:15:27;;;;;;;1.77;0.90;;;12.20;99.90;;;;;;5035953;28;20434;-38
2023/11/06 11:18:04;;;;;;;2.37;0.80;;;12.30;32.30;;;;;;5054244;28;20586;-39
2023/11/06 11:20:54;;;;;;;1.37;0.70;;;12.10;24.80;;;;;;5035187;28;20511;-39
2023/11/06 11:23:42;;;;;;;4.57;0.97;;;12.00;99.90;;;;;;5053118;28;20519;-39
2023/11/06 11:26:09;;;;;;;3.00;1.30;;;12.10;99.90;;;;;;5053013;28;20423;-45
2023/11/06 11:28:57;;;;;;;3.03;1.10;;;12.10;99.90;;;;;;5052254;28;20515;-39
2023/11/06 11:31:36;;;;;;;2.60;1.00;;;12.20;99.90;;;;;;5054253;28;20558;-38
2023/11/06 11:34:05;;;;;;;2.53;0.83;;;12.50;99.90;;;;;;5055039;28;20419;-41
2023/11/06 11:36:40;;;;;;;1.23;0.60;;;12.60;99.90;;;;;;5064734;28;20435;-38
2023/11/06 11:39:17;;;;;;;3.60;0.87;;;12.50;24.60;;;;;;5061084;28;20569;-39
2023/11/06 11:42:04;;;;;;;1.67;0.60;;;12.80;1.00;;;;;;5075579;28;20870;-41
2023/11/06 11:44:30;;;;;;;2.47;0.80;;;13.00;1.00;;;;;;5075247;28;20847;-42
2023/11/06 11:47:00;;;;;;;1.73;0.90;;;13.10;1.00;;;;;;5076587;28;20435;-39
2023/11/06 11:49:38;;;;;;;3.00;0.70;;;13.90;1.00;;;;;;5075865;28;20451;-40
2023/11/06 11:52:05;;;;;;;2.40;0.63;;;14.90;99.90;;;;;;5077631;28;20458;-40
2023/11/06 11:54:32;;;;;;;1.63;0.40;;;15.40;99.90;;;;;;5070028;28;20427;-39
2023/11/06 11:56:58;;;;;;;1.90;0.60;;;15.10;96.50;;;;;;5076335;28;20698;-39
2023/11/06 11:59:25;;;;;;;1.00;0.53;;;14.90;99.90;;;;;;5072234;28;20767;-40
2023/11/06 12:01:52;;;;;;;2.80;0.90;;;15.70;60.80;;;;;;5074525;28;20429;-40
2023/11/06 12:04:22;;;;;;;2.03;0.50;;;16.50;1.00;;;;;;5075293;28;20429;-39
2023/11/06 12:07:05;;;;;;;2.17;0.60;;;16.40;1.00;;;;;;5098695;28;20694;-42
2023/11/06 12:09:47;;;;;;;1.30;0.80;;;17.40;1.00;;;;;;5092373;28;20406;-40
2023/11/06 12:12:24;;;;;;;1.90;0.50;;;17.80;1.00;;;;;;5097300;28;20427;-38
2023/11/06 12:14:51;;;;;;;1.67;0.60;;;17.40;1.00;;;;;;5095222;28;20433;-41
2023/11/06 12:17:34;;;;;;;1.50;0.57;;;16.10;1.00;;;;;;5094549;28;20427;-39
2023/11/06 12:20:01;;;;;;;2.50;0.50;;;15.80;1.00;;;;;;5093164;28;20693;-39
2023/11/06 12:22:28;;;;;;;2.07;0.63;;;15.30;1.00;;;;;;5094605;28;20418;-38
2023/11/06 12:24:55;;;;;;;1.93;0.60;;;14.70;1.00;;;;;;5094658;28;20409;-40
2023/11/06 12:27:31;;;;;;;1.50;0.63;;;14.10;1.00;;;;;;5095520;28;20905;-39
2023/11/06 12:30:06;;;;;;;1.00;0.50;;;13.60;16.00;;;;;;5095466;28;20426;-41
2023/11/06 12:32:36;;;;;;;1.73;0.60;;;13.30;94.00;;;;;;5096136;28;20410;-39
2023/11/06 12:35:07;;;;;;;1.53;0.60;;;13.10;99.90;;;;;;5071189;28;20441;-38
2023/11/06 12:37:54;;;;;;;1.83;0.60;;;13.00;99.90;;;;;;5096725;28;20575;-38
2023/11/06 12:40:27;;;;;;;0.90;0.40;;;12.90;99.90;;;;;;5095681;28;20938;-38
2023/11/06 12:43:00;;;;;;;1.17;0.50;;;12.90;99.90;;;;;;5077929;28;20422;-40
2023/11/06 12:45:38;;;;;;;0.93;0.50;;;13.00;99.90;;;;;;5094639;28;20419;-39
2023/11/06 12:48:29;;;;;;;3.00;0.60;;;13.00;99.90;;;;;;5095243;28;20418;-38
2023/11/06 12:51:11;;;;;;;1.37;0.53;;;12.70;99.90;;;;;;5085146;28;20506;-39
2023/11/06 12:53:38;;;;;;;1.57;0.50;;;12.60;99.90;;;;;;5094368;28;20449;-42
2023/11/06 12:56:06;;;;;;;0.90;0.40;;;12.80;99.90;;;;;;5095686;28;20452;-40
2023/11/06 12:58:37;;;;;;;0.90;0.37;;;12.80;99.90;;;;;;5077504;28;20471;-42
2023/11/06 13:01:28;;;;;;;0.80;0.40;;;12.80;99.90;;;;;;5088625;28;20449;-42